Time;durP1;ratioP1;P1;durP2;ratioP2;P2;SDS_P1;SDS_P2;PMS_P1;PMS_P2;Temp;Humidity;BMP_temperature;BMP_pressure;BME280_temperature;BME280_humidity;BME280_pressure;Samples;Min_cycle;Max_cycle;Signal;HPM_P1;HPM_P2
2022/05/20 02:48:21;;;;;;;2.25;0.75;;;19.50;72.30;;;;;;5010168;22;88903;-73
2022/05/20 02:50:49;;;;;;;1.98;0.60;;;19.50;72.30;;;;;;4937234;28;88071;-73
2022/05/20 02:53:15;;;;;;;2.20;0.60;;;19.50;72.60;;;;;;4936530;28;87737;-73
2022/05/20 02:55:40;;;;;;;1.70;0.52;;;19.40;72.90;;;;;;4942331;28;86892;-76
2022/05/20 02:58:06;;;;;;;4.72;1.13;;;19.30;73.00;;;;;;4956439;28;87018;-75
2022/05/20 03:06:01;;;;;;;1.50;0.60;;;19.20;73.30;;;;;;4946426;28;87019;-75
2022/05/20 03:08:26;;;;;;;1.45;0.43;;;19.20;72.90;;;;;;4953160;28;86311;-75
2022/05/20 03:10:52;;;;;;;3.10;0.63;;;19.10;73.00;;;;;;4957278;28;87005;-77
2022/05/20 03:13:18;;;;;;;2.15;0.40;;;19.20;72.20;;;;;;4946713;28;87853;-76
2022/05/20 03:15:44;;;;;;;1.95;0.73;;;19.20;72.00;;;;;;4955930;28;88081;-76
2022/05/20 03:18:12;;;;;;;1.48;0.47;;;19.20;71.40;;;;;;4953590;28;86878;-76
2022/05/20 03:20:41;;;;;;;1.38;0.50;;;19.30;71.50;;;;;;4943946;28;88316;-76
2022/05/20 03:23:09;;;;;;;3.10;0.75;;;19.40;70.90;;;;;;4950412;28;87090;-76
2022/05/20 03:25:36;;;;;;;2.10;0.43;;;19.40;71.00;;;;;;4946102;28;87628;-77
2022/05/20 03:28:02;;;;;;;2.10;0.52;;;19.40;70.60;;;;;;4956414;28;86807;-75
2022/05/20 03:30:27;;;;;;;3.15;0.50;;;19.40;70.30;;;;;;4948961;28;88062;-75
2022/05/20 03:32:53;;;;;;;2.50;0.65;;;19.50;70.60;;;;;;4955389;28;87393;-74
2022/05/20 03:35:19;;;;;;;4.38;0.60;;;19.50;70.10;;;;;;4956708;28;87287;-75
2022/05/20 03:37:44;;;;;;;2.00;0.50;;;19.50;71.00;;;;;;4945433;28;87088;-75
2022/05/20 03:40:11;;;;;;;3.50;1.15;;;19.40;71.00;;;;;;4955276;28;88432;-76
2022/05/20 03:42:36;;;;;;;1.30;0.43;;;19.30;71.50;;;;;;4955472;28;88267;-77
2022/05/20 03:45:03;;;;;;;3.30;0.47;;;19.30;71.60;;;;;;4954222;28;87010;-77
2022/05/20 03:47:28;;;;;;;2.00;0.50;;;19.30;71.50;;;;;;4943622;28;87320;-76
2022/05/20 03:49:54;;;;;;;1.48;0.47;;;19.40;71.70;;;;;;4936098;28;86961;-77
2022/05/20 03:52:20;;;;;;;2.47;0.50;;;19.30;71.10;;;;;;4935877;28;87124;-77
2022/05/20 03:54:46;;;;;;;3.78;0.73;;;19.30;71.20;;;;;;4937181;28;86992;-77
2022/05/20 03:57:12;;;;;;;3.30;0.38;;;19.40;70.30;;;;;;4937562;28;86647;-77
2022/05/20 03:59:37;;;;;;;2.65;0.47;;;19.50;70.60;;;;;;4935910;28;87257;-75
2022/05/20 04:02:10;;;;;;;1.67;0.30;;;19.60;70.30;;;;;;4929994;28;87266;-76
2022/05/20 04:04:46;;;;;;;1.77;0.40;;;19.60;70.10;;;;;;4934422;28;88363;-76
2022/05/20 04:07:15;;;;;;;4.20;0.50;;;19.70;69.90;;;;;;4937980;28;87110;-76
2022/05/20 04:09:41;;;;;;;4.25;0.63;;;19.80;70.30;;;;;;4929319;28;87393;-76
2022/05/20 04:12:13;;;;;;;1.35;0.55;;;19.80;70.20;;;;;;4936563;28;87054;-74
2022/05/20 04:14:39;;;;;;;1.95;0.50;;;19.90;69.70;;;;;;4938326;28;87567;-74
2022/05/20 04:17:05;;;;;;;1.63;0.52;;;20.20;68.90;;;;;;4937587;28;87429;-74
2022/05/20 04:19:33;;;;;;;2.10;0.50;;;20.50;68.20;;;;;;4936876;28;86707;-76
2022/05/20 04:22:03;;;;;;;4.07;0.50;;;20.90;67.00;;;;;;4937385;28;86926;-76
2022/05/20 04:24:29;;;;;;;2.25;0.82;;;21.20;66.10;;;;;;4936239;28;87260;-77
2022/05/20 04:26:55;;;;;;;3.15;0.77;;;21.70;63.60;;;;;;4934317;28;87593;-75
2022/05/20 04:29:20;;;;;;;7.43;0.90;;;22.00;63.40;;;;;;4935835;28;88322;-76
2022/05/20 04:31:49;;;;;;;2.08;0.55;;;22.30;62.10;;;;;;4926154;28;87864;-75
2022/05/20 04:34:17;;;;;;;2.03;0.68;;;22.60;62.10;;;;;;4929328;28;87772;-76
2022/05/20 04:36:43;;;;;;;2.08;0.77;;;23.00;60.50;;;;;;4927265;28;86614;-75
2022/05/20 04:39:09;;;;;;;2.80;0.95;;;23.30;60.50;;;;;;4929699;28;87531;-74
2022/05/20 04:47:09;;;;;;;1.75;0.70;;;24.10;57.60;;;;;;4927238;28;86452;-72
2022/05/20 04:49:40;;;;;;;2.30;0.60;;;24.10;57.70;;;;;;4935075;28;87450;-74
2022/05/20 04:52:06;;;;;;;2.50;0.60;;;24.40;56.90;;;;;;4934807;28;87203;-74
2022/05/20 04:54:50;;;;;;;1.75;0.70;;;24.90;56.00;;;;;;4930294;28;87946;-75
2022/05/20 04:57:23;;;;;;;5.78;0.70;;;25.10;54.90;;;;;;4930228;28;87042;-74
2022/05/20 04:59:51;;;;;;;3.70;0.80;;;25.80;54.10;;;;;;4924529;28;87104;-75
2022/05/20 05:02:17;;;;;;;3.65;0.68;;;26.10;52.90;;;;;;4931636;28;87473;-74
2022/05/20 05:04:43;;;;;;;2.08;0.70;;;26.40;51.70;;;;;;4928592;28;87281;-73
2022/05/20 05:07:10;;;;;;;5.95;0.70;;;26.70;51.80;;;;;;4936589;28;87165;-74
2022/05/20 05:09:43;;;;;;;3.80;0.82;;;26.90;50.80;;;;;;4937659;28;87434;-72
2022/05/20 05:12:09;;;;;;;2.33;0.80;;;27.20;49.60;;;;;;4934713;28;86935;-74
2022/05/20 05:14:40;;;;;;;2.08;1.00;;;27.60;49.80;;;;;;4939308;28;86933;-74
2022/05/20 05:17:08;;;;;;;4.25;1.10;;;28.40;49.40;;;;;;4936849;28;87089;-74
2022/05/20 05:19:39;;;;;;;2.72;0.93;;;29.60;48.00;;;;;;4935024;28;89032;-73
2022/05/20 05:22:06;;;;;;;2.13;0.98;;;30.30;45.10;;;;;;4933115;28;88404;-74
2022/05/20 05:24:34;;;;;;;4.32;0.90;;;30.40;45.60;;;;;;4932295;28;87132;-74
2022/05/20 05:27:00;;;;;;;1.73;0.85;;;31.30;43.40;;;;;;4937492;28;87012;-74
2022/05/20 05:29:25;;;;;;;4.47;0.98;;;31.70;43.50;;;;;;4935429;28;87401;-74
2022/05/20 05:31:52;;;;;;;2.35;0.80;;;31.90;42.70;;;;;;4933661;28;87366;-74
2022/05/20 05:34:17;;;;;;;3.80;0.85;;;31.70;42.50;;;;;;4938960;28;86943;-74
2022/05/20 05:36:43;;;;;;;3.80;1.08;;;31.40;42.90;;;;;;4938036;28;86660;-74
2022/05/20 05:39:09;;;;;;;3.40;1.10;;;31.60;42.90;;;;;;4938939;28;87041;-74
2022/05/20 05:41:35;;;;;;;7.80;1.17;;;32.10;41.70;;;;;;4933755;28;89780;-73
2022/05/20 05:44:01;;;;;;;5.00;1.02;;;31.90;41.80;;;;;;4930453;28;89574;-74
2022/05/20 05:46:27;;;;;;;2.15;1.23;;;32.30;42.30;;;;;;4934451;28;86681;-74
2022/05/20 05:48:52;;;;;;;3.75;1.20;;;33.60;40.30;;;;;;4938605;28;88079;-74
2022/05/20 05:51:18;;;;;;;2.08;0.93;;;34.60;39.70;;;;;;4929745;28;87842;-74
2022/05/20 05:53:44;;;;;;;11.07;1.20;;;35.60;38.20;;;;;;4936171;28;87115;-74
2022/05/20 05:56:09;;;;;;;2.80;1.10;;;35.70;37.70;;;;;;4937569;28;86797;-74
2022/05/20 05:58:37;;;;;;;4.72;1.45;;;35.60;37.90;;;;;;4927259;28;88649;-75
2022/05/20 06:01:03;;;;;;;5.57;1.23;;;36.30;37.30;;;;;;4935984;28;86378;-74
2022/05/20 06:03:30;;;;;;;4.05;0.93;;;37.20;37.10;;;;;;4937789;28;87080;-75
2022/05/20 06:05:55;;;;;;;3.00;1.58;;;38.10;36.20;;;;;;4938137;28;86725;-74
2022/05/20 06:08:22;;;;;;;2.55;1.08;;;38.10;35.40;;;;;;4937294;28;88087;-74
2022/05/20 06:10:48;;;;;;;4.72;2.42;;;38.10;35.10;;;;;;4937186;28;88242;-74
2022/05/20 06:13:20;;;;;;;3.35;1.50;;;38.20;34.70;;;;;;4937876;28;86917;-74
2022/05/20 06:15:46;;;;;;;2.42;1.33;;;38.10;34.70;;;;;;4936781;28;87416;-75
2022/05/20 06:18:11;;;;;;;3.80;1.63;;;38.10;35.30;;;;;;4937951;28;88286;-75
2022/05/20 06:20:37;;;;;;;2.40;1.48;;;39.10;33.30;;;;;;4935504;28;87009;-74
2022/05/20 06:23:03;;;;;;;4.03;1.52;;;39.70;33.40;;;;;;4932427;28;87355;-74
2022/05/20 06:25:29;;;;;;;2.80;1.83;;;40.10;33.40;;;;;;4929389;28;86330;-74
2022/05/20 06:28:04;;;;;;;4.22;1.55;;;40.70;32.60;;;;;;4935155;28;87674;-74
2022/05/20 06:30:30;;;;;;;2.95;1.67;;;40.30;32.90;;;;;;4930723;28;86651;-74
2022/05/20 06:32:55;;;;;;;3.75;2.03;;;40.60;32.90;;;;;;4938171;28;88246;-74
2022/05/20 06:41:04;;;;;;;3.10;1.80;;;39.90;32.90;;;;;;4931434;28;87009;-74
2022/05/20 06:43:30;;;;;;;7.05;3.00;;;39.90;33.00;;;;;;4926284;28;87059;-74
2022/05/20 06:45:58;;;;;;;3.40;2.00;;;40.90;33.20;;;;;;4929019;28;87154;-74
2022/05/20 06:48:35;;;;;;;4.15;1.65;;;41.70;31.30;;;;;;4927825;28;88234;-74
2022/05/20 06:51:04;;;;;;;3.67;1.70;;;40.80;32.50;;;;;;4926001;28;86897;-75
2022/05/20 06:53:29;;;;;;;4.97;1.35;;;38.60;32.70;;;;;;4931655;28;87007;-75
2022/05/20 06:55:55;;;;;;;5.70;1.85;;;36.50;36.20;;;;;;4933263;28;87028;-74
2022/05/20 06:58:21;;;;;;;3.90;3.05;;;34.80;37.70;;;;;;4928063;28;88652;-74
2022/05/20 07:00:46;;;;;;;3.13;1.33;;;34.50;38.30;;;;;;4933195;28;88682;-75
2022/05/20 07:03:12;;;;;;;3.40;1.80;;;34.90;40.00;;;;;;4931555;28;87414;-74
2022/05/20 07:05:38;;;;;;;2.42;1.33;;;35.10;37.50;;;;;;4935238;28;87024;-74
2022/05/20 07:08:03;;;;;;;2.28;1.38;;;35.60;38.90;;;;;;4936063;28;87011;-74
2022/05/20 07:10:29;;;;;;;8.57;2.40;;;36.00;38.90;;;;;;4936765;28;88509;-74
2022/05/20 07:12:55;;;;;;;6.22;2.10;;;35.00;42.30;;;;;;4936406;28;86920;-74
2022/05/20 07:15:21;;;;;;;5.20;2.47;;;34.10;44.00;;;;;;4936866;28;86397;-74
2022/05/20 07:17:47;;;;;;;4.22;2.35;;;35.20;44.50;;;;;;4936174;28;88227;-75
2022/05/20 07:20:13;;;;;;;4.55;2.42;;;36.60;42.00;;;;;;4936598;28;86943;-75
2022/05/20 07:22:39;;;;;;;5.20;2.38;;;37.30;41.10;;;;;;4936032;28;87828;-74
2022/05/20 07:25:05;;;;;;;5.97;3.08;;;37.30;40.20;;;;;;4935022;28;87179;-74
2022/05/20 07:27:31;;;;;;;3.78;2.28;;;36.70;40.90;;;;;;4935039;28;87181;-74
2022/05/20 07:29:58;;;;;;;4.95;3.03;;;37.20;41.60;;;;;;4936300;28;86894;-74
2022/05/20 07:32:23;;;;;;;4.18;3.03;;;39.40;39.60;;;;;;4936754;28;87344;-75
2022/05/20 07:34:49;;;;;;;5.88;4.30;;;42.10;36.30;;;;;;4934488;28;87161;-74
2022/05/20 07:37:15;;;;;;;5.00;2.58;;;44.10;34.50;;;;;;4935711;28;88267;-75
2022/05/20 07:39:40;;;;;;;3.60;2.50;;;46.00;33.10;;;;;;4927397;28;87416;-75
2022/05/20 07:42:06;;;;;;;4.40;3.17;;;47.60;32.30;;;;;;4935890;28;86937;-75
2022/05/20 07:44:33;;;;;;;6.57;3.53;;;48.50;31.30;;;;;;4936602;28;86882;-75
2022/05/20 07:46:59;;;;;;;3.97;3.47;;;49.20;30.00;;;;;;4935085;28;88106;-75
2022/05/20 07:49:25;;;;;;;5.43;4.00;;;49.00;30.40;;;;;;4936025;28;87226;-75
2022/05/20 07:51:55;;;;;;;5.32;4.82;;;49.40;30.10;;;;;;4935362;28;87154;-75
2022/05/20 07:54:24;;;;;;;7.78;5.75;;;50.10;30.00;;;;;;4936317;28;87012;-76
2022/05/20 07:56:57;;;;;;;6.82;4.22;;;50.60;29.50;;;;;;4935585;28;87012;-75
2022/05/20 07:59:31;;;;;;;9.70;5.85;;;50.80;29.60;;;;;;4936129;28;89859;-74
2022/05/20 08:01:59;;;;;;;4.85;4.43;;;51.20;29.40;;;;;;4929406;28;87291;-75
2022/05/20 08:07:13;;;;;;;6.47;4.28;;;48.70;30.30;;;;;;4938091;28;87129;-75
2022/05/20 08:09:39;;;;;;;6.97;4.30;;;48.60;30.50;;;;;;4935411;28;87005;-76
2022/05/20 08:12:05;;;;;;;8.38;7.68;;;48.80;30.00;;;;;;4935827;28;87945;-75
2022/05/20 08:14:31;;;;;;;6.53;4.97;;;49.10;29.80;;;;;;4935787;28;87123;-75
2022/05/20 08:16:58;;;;;;;9.90;4.28;;;49.10;29.80;;;;;;4935157;28;86615;-75
2022/05/20 08:19:24;;;;;;;6.15;5.53;;;50.10;29.10;;;;;;4933294;28;87069;-75
2022/05/20 08:21:50;;;;;;;6.68;4.88;;;51.40;29.10;;;;;;4930008;28;86973;-75
2022/05/20 08:24:16;;;;;;;6.15;5.38;;;51.40;28.60;;;;;;4934043;28;88291;-75
2022/05/20 08:26:42;;;;;;;5.75;5.25;;;51.80;28.50;;;;;;4934222;28;87830;-75
2022/05/20 08:29:09;;;;;;;7.03;6.05;;;52.30;28.10;;;;;;4936073;28;86939;-75
2022/05/20 08:31:34;;;;;;;6.90;6.30;;;52.70;28.50;;;;;;4932959;28;87492;-75
2022/05/20 08:34:02;;;;;;;11.38;10.43;;;53.30;27.50;;;;;;4934431;28;87422;-76
2022/05/20 08:36:29;;;;;;;7.60;6.38;;;53.40;27.60;;;;;;4934261;28;89483;-76
2022/05/20 08:38:55;;;;;;;7.30;6.60;;;52.10;28.30;;;;;;4937311;28;88847;-75
2022/05/20 08:41:34;;;;;;;7.65;6.13;;;51.50;27.50;;;;;;4937765;28;88965;-75
2022/05/20 08:44:01;;;;;;;6.65;6.03;;;52.00;28.50;;;;;;4937173;28;87447;-75
2022/05/20 08:46:27;;;;;;;7.00;6.40;;;51.40;27.50;;;;;;4934536;28;88810;-75
2022/05/20 08:48:56;;;;;;;7.38;6.65;;;51.10;28.50;;;;;;4936554;28;88044;-75
2022/05/20 08:51:24;;;;;;;7.03;6.32;;;50.50;28.40;;;;;;4927009;28;88024;-75
2022/05/20 08:53:50;;;;;;;8.35;6.28;;;50.40;29.20;;;;;;4932501;28;86268;-76
2022/05/20 08:56:22;;;;;;;9.48;8.68;;;51.20;28.90;;;;;;4938072;28;87516;-75
2022/05/20 08:58:56;;;;;;;11.70;7.05;;;52.30;27.80;;;;;;4932929;28;87137;-75
2022/05/20 09:01:29;;;;;;;6.97;6.35;;;53.10;27.30;;;;;;4932463;28;87912;-75
2022/05/20 09:03:55;;;;;;;10.77;6.95;;;54.00;27.40;;;;;;4934863;28;87034;-75
2022/05/20 09:06:21;;;;;;;7.45;6.75;;;54.60;27.00;;;;;;4937094;28;89384;-75
2022/05/20 09:09:12;;;;;;;7.28;6.57;;;55.10;27.10;;;;;;4937006;28;87327;-75
2022/05/20 09:11:40;;;;;;;7.30;6.63;;;55.50;25.90;;;;;;4935158;28;86631;-76
2022/05/20 09:17:08;;;;;;;8.55;7.75;;;55.50;25.10;;;;;;4938415;28;87396;-75
2022/05/20 09:19:34;;;;;;;9.57;8.65;;;55.60;25.40;;;;;;4937175;28;86941;-75
2022/05/20 09:22:14;;;;;;;9.32;8.43;;;55.70;25.70;;;;;;4939277;28;87106;-75
2022/05/20 09:24:44;;;;;;;7.72;6.95;;;55.30;26.70;;;;;;4939045;28;87051;-75
2022/05/20 09:27:25;;;;;;;9.00;7.40;;;54.90;26.70;;;;;;4936897;28;89374;-75
2022/05/20 09:29:59;;;;;;;7.95;7.15;;;53.70;27.00;;;;;;4938985;28;88953;-75
2022/05/20 09:32:28;;;;;;;7.75;7.07;;;53.90;27.10;;;;;;4937995;28;87043;-75
2022/05/20 09:35:19;;;;;;;7.63;6.93;;;54.30;26.30;;;;;;4938595;28;87003;-75
2022/05/20 09:37:47;;;;;;;12.30;11.35;;;53.90;26.20;;;;;;4935766;28;87645;-75
2022/05/20 09:40:31;;;;;;;7.72;7.03;;;54.20;26.50;;;;;;4932194;28;87082;-76
2022/05/20 09:43:00;;;;;;;6.63;5.85;;;54.00;26.50;;;;;;4934261;28;87096;-76
2022/05/20 09:45:26;;;;;;;8.75;8.00;;;53.60;27.00;;;;;;4934962;28;86460;-75
2022/05/20 09:47:57;;;;;;;7.72;6.95;;;52.50;27.40;;;;;;4936549;28;87115;-75
2022/05/20 09:50:55;;;;;;;6.18;5.68;;;51.70;27.40;;;;;;4927626;28;87466;-75
2022/05/20 09:53:39;;;;;;;10.15;7.65;;;51.00;27.40;;;;;;4933609;28;87615;-75
2022/05/20 09:56:29;;;;;;;7.10;6.40;;;51.00;28.40;;;;;;4928964;28;87796;-76
2022/05/20 09:59:19;;;;;;;6.95;6.25;;;50.80;28.20;;;;;;4937304;28;87570;-76
2022/05/20 10:02:07;;;;;;;6.75;6.07;;;50.00;27.90;;;;;;4933254;28;88735;-75
2022/05/20 10:04:55;;;;;;;6.35;5.72;;;47.80;29.40;;;;;;4933313;28;86976;-76
2022/05/20 10:07:43;;;;;;;8.63;5.68;;;46.20;30.20;;;;;;4933947;28;86970;-75
2022/05/20 10:10:17;;;;;;;10.73;9.82;;;44.50;31.90;;;;;;4931848;28;88168;-75
2022/05/20 10:12:46;;;;;;;6.43;5.20;;;42.00;33.50;;;;;;4918396;28;86435;-75
2022/05/20 10:15:19;;;;;;;5.47;4.65;;;39.50;36.70;;;;;;4927351;28;88439;-75
2022/05/20 10:18:05;;;;;;;11.13;4.30;;;37.90;39.70;;;;;;4930309;28;87209;-76
2022/05/20 10:21:05;;;;;;;5.28;4.18;;;36.00;43.70;;;;;;4930275;28;89848;-76
2022/05/20 10:23:53;;;;;;;6.60;3.17;;;34.70;43.70;;;;;;4932454;28;87357;-76
2022/05/20 10:26:51;;;;;;;9.00;3.10;;;34.00;44.80;;;;;;4928700;28;87105;-76
2022/05/20 10:32:39;;;;;;;5.53;2.60;;;32.00;48.10;;;;;;4937990;28;87375;-76
2022/05/20 10:35:16;;;;;;;6.32;3.55;;;31.80;48.70;;;;;;4936940;28;87132;-76
2022/05/20 10:38:22;;;;;;;4.40;2.45;;;32.30;48.50;;;;;;4930512;28;87079;-75
2022/05/20 10:41:03;;;;;;;3.67;2.35;;;32.60;46.70;;;;;;4934711;28;86360;-76
2022/05/20 10:49:57;;;;;;;6.63;3.13;;;31.10;48.90;;;;;;4934223;28;87974;-76
2022/05/20 10:52:53;;;;;;;5.28;2.75;;;31.10;50.50;;;;;;4933237;28;87015;-75
2022/05/20 10:55:41;;;;;;;8.20;2.30;;;30.80;52.10;;;;;;4934131;28;88614;-75
2022/05/20 10:58:34;;;;;;;7.00;4.47;;;30.80;51.00;;;;;;4933204;28;87858;-76
2022/05/20 11:01:13;;;;;;;3.22;2.13;;;31.00;48.00;;;;;;4928927;28;87547;-75
2022/05/20 11:04:04;;;;;;;5.28;1.95;;;30.90;47.30;;;;;;4936046;28;87229;-75
2022/05/20 11:06:45;;;;;;;3.03;1.92;;;31.00;47.40;;;;;;4934381;28;87589;-75
2022/05/20 11:09:39;;;;;;;5.75;2.85;;;31.00;49.10;;;;;;4935832;28;87840;-75
2022/05/20 11:12:13;;;;;;;7.43;2.40;;;30.80;50.80;;;;;;4932949;28;87275;-75
2022/05/20 11:14:57;;;;;;;4.38;2.90;;;30.90;49.30;;;;;;4937417;28;87038;-75
2022/05/20 11:18:02;;;;;;;7.22;2.25;;;31.10;49.40;;;;;;4933939;28;88811;-75
2022/05/20 11:20:40;;;;;;;5.25;2.53;;;30.90;48.50;;;;;;4932712;28;87015;-75
2022/05/20 11:23:47;;;;;;;6.28;2.80;;;30.40;50.00;;;;;;4929233;28;87089;-75
2022/05/20 11:26:15;;;;;;;4.55;2.58;;;30.20;52.90;;;;;;4928181;28;87886;-75
2022/05/20 11:29:00;;;;;;;5.00;2.97;;;30.20;52.50;;;;;;4930361;28;88272;-75
2022/05/20 11:31:41;;;;;;;7.18;2.35;;;30.10;51.80;;;;;;4932071;28;87243;-76
2022/05/20 11:34:34;;;;;;;3.90;2.15;;;30.10;51.80;;;;;;4932597;28;87350;-75
2022/05/20 11:37:41;;;;;;;4.10;2.28;;;30.20;52.80;;;;;;4936066;28;86568;-76
2022/05/20 11:40:18;;;;;;;4.25;2.25;;;30.60;52.20;;;;;;4936661;28;87316;-76
2022/05/20 11:43:08;;;;;;;7.85;2.38;;;30.60;53.20;;;;;;4936139;28;87133;-76
2022/05/20 11:46:10;;;;;;;4.57;2.45;;;30.40;51.30;;;;;;4928596;28;87867;-75
2022/05/20 11:48:39;;;;;;;4.45;1.98;;;30.40;50.10;;;;;;4936448;28;86999;-75
2022/05/20 11:51:14;;;;;;;5.60;2.25;;;30.50;49.70;;;;;;4935844;28;88290;-74
2022/05/20 11:53:54;;;;;;;5.75;2.47;;;30.30;53.10;;;;;;4932267;28;87099;-74
2022/05/20 11:56:28;;;;;;;4.72;2.33;;;30.30;50.50;;;;;;4930314;28;87124;-75
2022/05/20 11:59:31;;;;;;;5.97;1.98;;;30.40;53.30;;;;;;4932038;28;87514;-75
2022/05/20 12:01:59;;;;;;;4.97;3.15;;;30.50;50.50;;;;;;4931080;28;87669;-74
2022/05/20 12:04:29;;;;;;;5.43;2.15;;;30.50;51.00;;;;;;4929549;28;87318;-75
2022/05/20 12:07:04;;;;;;;5.07;1.98;;;30.60;48.40;;;;;;4924764;28;86849;-74
2022/05/20 12:09:30;;;;;;;3.60;1.63;;;30.40;50.90;;;;;;4927828;28;87610;-75
2022/05/20 12:12:28;;;;;;;3.95;2.00;;;30.40;49.10;;;;;;4922550;28;88709;-74
2022/05/20 12:14:54;;;;;;;6.85;1.70;;;30.40;53.20;;;;;;4921145;28;87476;-73
2022/05/20 12:17:41;;;;;;;4.05;1.98;;;30.50;49.00;;;;;;4930838;28;87157;-76
2022/05/20 12:26:45;;;;;;;5.70;2.13;;;30.40;51.50;;;;;;4930739;28;87131;-72
2022/05/20 12:29:35;;;;;;;3.38;2.17;;;30.10;52.00;;;;;;4926068;28;88511;-74
2022/05/20 12:32:29;;;;;;;5.05;1.80;;;30.10;53.40;;;;;;4927872;28;86718;-75
2022/05/20 12:35:06;;;;;;;5.20;2.03;;;30.40;51.50;;;;;;4906585;28;87099;-72
2022/05/20 12:37:44;;;;;;;4.75;2.28;;;30.40;51.70;;;;;;4930082;28;87597;-75
2022/05/20 12:40:28;;;;;;;4.97;2.03;;;30.10;51.60;;;;;;4928683;28;87879;-75
2022/05/20 12:43:03;;;;;;;4.57;2.03;;;30.10;50.80;;;;;;4926420;28;87221;-73
2022/05/20 12:45:40;;;;;;;3.88;1.95;;;30.20;52.30;;;;;;4925909;28;87390;-74
2022/05/20 12:48:07;;;;;;;7.93;2.10;;;30.10;53.40;;;;;;4925654;28;87253;-73
2022/05/20 12:50:33;;;;;;;5.10;2.47;;;30.20;51.40;;;;;;4933350;28;87100;-77
2022/05/20 12:53:07;;;;;;;5.72;1.98;;;30.40;52.50;;;;;;4933145;28;87494;-74
2022/05/20 12:55:40;;;;;;;3.17;1.85;;;30.60;49.70;;;;;;4930449;28;87198;-75
2022/05/20 12:58:09;;;;;;;2.92;1.58;;;30.90;51.20;;;;;;4935004;28;87722;-76
2022/05/20 13:00:41;;;;;;;4.10;1.80;;;31.20;51.90;;;;;;4924289;28;86719;-74
2022/05/20 13:03:39;;;;;;;3.67;2.05;;;31.30;48.10;;;;;;4928172;28;87913;-74
2022/05/20 13:06:16;;;;;;;3.47;2.13;;;31.20;48.30;;;;;;4926042;28;89052;-75
2022/05/20 13:08:48;;;;;;;3.95;1.63;;;30.70;49.60;;;;;;4928510;28;87670;-75
2022/05/20 13:11:15;;;;;;;4.13;1.92;;;30.50;49.10;;;;;;4926278;28;88126;-75
2022/05/20 13:13:42;;;;;;;6.13;1.80;;;30.50;50.90;;;;;;4924067;28;87113;-75
2022/05/20 13:16:11;;;;;;;4.35;1.90;;;30.60;49.10;;;;;;4932945;28;90355;-74
2022/05/20 13:18:41;;;;;;;;;;;30.70;49.30;;;;;;4932768;28;87120;-74
2022/05/20 13:21:20;;;;;;;6.03;1.60;;;30.70;50.30;;;;;;4929846;28;87128;-74
2022/05/20 13:23:48;;;;;;;2.97;1.80;;;30.90;49.40;;;;;;4933309;28;86496;-74
2022/05/20 13:26:25;;;;;;;4.13;1.65;;;31.20;49.00;;;;;;4937250;28;87338;-74
2022/05/20 13:28:50;;;;;;;7.22;2.35;;;31.60;50.30;;;;;;4934497;28;87127;-74
2022/05/20 13:31:22;;;;;;;5.35;1.85;;;31.90;50.40;;;;;;4931556;28;88379;-76
2022/05/20 13:33:48;;;;;;;4.70;1.67;;;31.80;50.70;;;;;;4929950;28;87071;-73
2022/05/20 13:36:21;;;;;;;2.47;1.80;;;31.60;50.00;;;;;;4938587;28;88007;-74
2022/05/20 13:38:55;;;;;;;5.03;2.53;;;31.40;48.20;;;;;;4936861;28;87338;-74
2022/05/20 13:41:24;;;;;;;4.75;1.75;;;31.40;46.80;;;;;;4930525;28;87106;-74
2022/05/20 13:43:52;;;;;;;4.00;1.75;;;31.30;47.30;;;;;;4928671;28;87270;-73
2022/05/20 13:49:14;;;;;;;3.65;1.65;;;31.30;47.90;;;;;;4938901;28;87339;-74
2022/05/20 13:51:56;;;;;;;3.58;1.63;;;31.30;45.00;;;;;;4924017;28;87144;-74
2022/05/20 13:54:43;;;;;;;7.75;1.65;;;31.30;44.20;;;;;;4932889;28;87342;-73
2022/05/20 13:57:18;;;;;;;5.03;1.85;;;31.30;46.40;;;;;;4934312;28;88324;-74
2022/05/20 13:59:44;;;;;;;3.72;1.80;;;31.20;43.50;;;;;;4936196;28;88706;-74
2022/05/20 14:02:09;;;;;;;4.82;1.83;;;31.10;44.60;;;;;;4932037;28;87114;-74
2022/05/20 14:04:41;;;;;;;6.70;1.67;;;31.10;48.40;;;;;;4938735;28;87055;-73
2022/05/20 14:07:31;;;;;;;3.75;1.48;;;31.10;48.00;;;;;;4937829;28;87496;-74
2022/05/20 14:10:14;;;;;;;6.32;2.40;;;31.20;45.70;;;;;;4929099;28;89051;-74
2022/05/20 14:13:01;;;;;;;2.17;1.20;;;31.00;43.40;;;;;;4934708;28;87240;-75
2022/05/20 14:15:27;;;;;;;4.82;2.17;;;31.00;46.10;;;;;;4931108;28;86197;-75
2022/05/20 14:18:03;;;;;;;5.45;2.53;;;31.00;45.00;;;;;;4933798;28;87918;-76
2022/05/20 14:20:34;;;;;;;2.80;1.52;;;31.00;42.60;;;;;;4933515;28;87600;-74
2022/05/20 14:23:00;;;;;;;4.40;1.42;;;31.00;43.50;;;;;;4932712;28;87794;-74
2022/05/20 14:25:29;;;;;;;3.50;1.33;;;30.90;42.90;;;;;;4934791;28;87131;-74
2022/05/20 14:28:17;;;;;;;3.40;1.42;;;30.90;42.60;;;;;;4937317;28;87109;-75
2022/05/20 14:30:55;;;;;;;2.80;1.25;;;31.00;43.70;;;;;;4937289;28;87043;-74
2022/05/20 14:33:33;;;;;;;6.07;2.63;;;31.00;42.40;;;;;;4937062;28;87176;-74
2022/05/20 14:36:02;;;;;;;7.05;1.73;;;31.00;41.60;;;;;;4929790;28;87504;-76
2022/05/20 14:38:35;;;;;;;2.97;1.40;;;31.00;42.70;;;;;;4931349;28;87476;-61
2022/05/20 14:41:03;;;;;;;4.25;2.10;;;31.00;45.00;;;;;;4930662;28;88359;-61
2022/05/20 14:43:37;;;;;;;3.13;1.15;;;31.00;45.90;;;;;;4933562;28;87111;-61
2022/05/20 14:46:06;;;;;;;2.75;1.05;;;30.80;47.20;;;;;;4933566;28;87185;-61
2022/05/20 14:48:39;;;;;;;3.58;1.00;;;30.80;47.10;;;;;;4934971;28;89028;-61
2022/05/20 14:51:14;;;;;;;2.45;1.13;;;30.60;46.10;;;;;;4934073;28;89242;-61
2022/05/20 14:53:44;;;;;;;2.90;0.90;;;30.50;47.20;;;;;;4936653;28;88004;-61
2022/05/20 14:56:29;;;;;;;2.80;1.05;;;30.60;48.00;;;;;;4934784;28;87011;-61
2022/05/20 14:58:58;;;;;;;2.30;1.05;;;30.50;48.60;;;;;;4932082;28;87573;-62
2022/05/20 15:01:29;;;;;;;3.97;1.33;;;30.40;48.30;;;;;;4931211;28;87068;-60
2022/05/20 15:03:55;;;;;;;3.55;1.20;;;30.40;47.90;;;;;;4931605;28;86978;-62
2022/05/20 15:06:25;;;;;;;5.97;1.05;;;30.30;48.60;;;;;;4936534;28;86429;-60
2022/05/20 15:08:51;;;;;;;2.65;1.10;;;30.30;49.10;;;;;;4936149;28;89330;-61
2022/05/20 15:11:17;;;;;;;2.38;1.05;;;30.20;49.20;;;;;;4936879;28;87896;-62
2022/05/20 15:13:43;;;;;;;1.80;0.77;;;30.20;49.60;;;;;;4933114;28;88022;-61
2022/05/20 15:16:09;;;;;;;3.35;1.50;;;30.20;49.30;;;;;;4936990;28;87143;-61
2022/05/20 15:18:35;;;;;;;3.10;0.93;;;30.10;49.30;;;;;;4944222;28;88369;-63
2022/05/20 15:21:05;;;;;;;5.82;1.52;;;30.20;49.30;;;;;;4936768;28;87784;-61
2022/05/20 15:23:38;;;;;;;3.80;1.05;;;30.30;49.30;;;;;;4937944;28;87025;-62
2022/05/20 15:26:13;;;;;;;6.45;2.80;;;30.40;48.50;;;;;;4927934;28;87588;-75
2022/05/20 15:28:48;;;;;;;7.60;2.08;;;30.40;48.60;;;;;;4931826;28;88141;-75
2022/05/20 15:36:45;;;;;;;4.65;1.98;;;30.60;48.20;;;;;;4936270;28;86960;-75
2022/05/20 15:39:23;;;;;;;3.95;2.63;;;30.80;48.10;;;;;;4933307;28;88521;-74
2022/05/20 15:41:48;;;;;;;4.65;1.98;;;30.80;47.20;;;;;;4936601;28;88329;-74
2022/05/20 15:44:14;;;;;;;2.53;1.30;;;30.70;47.10;;;;;;4935620;28;87088;-75
2022/05/20 15:46:40;;;;;;;4.05;1.35;;;30.60;47.70;;;;;;4934360;28;86983;-78
2022/05/20 15:49:07;;;;;;;5.68;2.97;;;30.60;48.00;;;;;;4933494;28;86865;-74
2022/05/20 15:51:32;;;;;;;2.60;1.33;;;30.60;49.70;;;;;;4930157;28;87895;-77
2022/05/20 15:53:58;;;;;;;3.13;1.58;;;30.50;49.40;;;;;;4934789;28;87440;-77
2022/05/20 15:56:25;;;;;;;2.90;1.17;;;30.30;50.20;;;;;;4933164;28;86594;-78
2022/05/20 15:58:55;;;;;;;5.28;1.30;;;30.20;49.40;;;;;;4931096;28;87348;-72
2022/05/20 16:01:22;;;;;;;5.65;1.63;;;30.10;51.20;;;;;;4929900;28;86995;-73
2022/05/20 16:03:48;;;;;;;8.38;1.77;;;30.00;51.90;;;;;;4929144;28;87590;-71
2022/05/20 16:06:17;;;;;;;10.48;2.08;;;29.80;52.80;;;;;;4932426;28;87068;-73
2022/05/20 16:08:44;;;;;;;6.93;2.33;;;29.40;53.30;;;;;;4927502;28;87092;-74
2022/05/20 16:11:10;;;;;;;6.80;2.13;;;29.30;53.50;;;;;;4930708;28;87472;-74
2022/05/20 16:13:36;;;;;;;6.97;1.80;;;29.30;54.20;;;;;;4929248;28;87496;-74
2022/05/20 16:16:01;;;;;;;5.45;2.13;;;29.20;54.40;;;;;;4930070;28;87410;-74
2022/05/20 16:18:27;;;;;;;6.55;2.08;;;29.10;54.40;;;;;;4935845;28;87488;-74
2022/05/20 16:20:53;;;;;;;6.35;2.28;;;29.20;54.00;;;;;;4936326;28;87872;-74
2022/05/20 16:23:22;;;;;;;4.70;2.13;;;29.10;53.50;;;;;;4936210;28;87024;-75
2022/05/20 16:25:59;;;;;;;6.22;2.13;;;29.10;54.70;;;;;;4930277;28;87756;-75
2022/05/20 16:28:25;;;;;;;2.90;1.60;;;29.20;53.70;;;;;;4935383;28;88313;-74
2022/05/20 16:30:51;;;;;;;7.00;1.92;;;29.30;54.10;;;;;;4934774;28;87201;-75
2022/05/20 16:33:17;;;;;;;6.57;2.20;;;29.30;53.60;;;;;;4927645;28;87307;-75
2022/05/20 16:35:43;;;;;;;8.25;2.45;;;29.40;53.30;;;;;;4935073;28;86759;-75
2022/05/20 16:38:11;;;;;;;4.47;1.88;;;29.40;52.90;;;;;;4927180;28;87063;-74
2022/05/20 16:40:37;;;;;;;5.35;2.13;;;29.30;54.40;;;;;;4935625;28;87513;-75
2022/05/20 16:43:03;;;;;;;6.47;2.15;;;29.30;54.90;;;;;;4925945;28;86959;-75